Time;durP1;ratioP1;P1;durP2;ratioP2;P2;SDS_P1;SDS_P2;PMS_P1;PMS_P2;Temp;Humidity;BMP_temperature;BMP_pressure;BME280_temperature;BME280_humidity;BME280_pressure;Samples;Min_cycle;Max_cycle;Signal;HPM_P1;HPM_P2
2022/04/06 00:01:15;;;;;;;23.40;10.98;;;8.50;99.90;;;;;;4972614;28;20049;-82
2022/04/06 00:03:43;;;;;;;29.20;11.60;;;8.50;99.90;;;;;;4986768;28;20096;-82
2022/04/06 00:06:09;;;;;;;31.95;11.98;;;8.50;99.90;;;;;;4974443;28;20120;-82
2022/04/06 00:08:35;;;;;;;24.73;11.63;;;8.50;99.90;;;;;;4986641;28;20031;-82
2022/04/06 00:11:02;;;;;;;25.10;11.52;;;8.50;99.90;;;;;;4974559;28;20613;-82
2022/04/06 00:13:28;;;;;;;30.48;11.70;;;8.60;99.90;;;;;;4974030;28;20058;-82
2022/04/06 00:15:54;;;;;;;24.83;10.98;;;8.60;99.90;;;;;;4990643;28;20049;-82
2022/04/06 00:18:20;;;;;;;32.72;11.80;;;8.60;99.90;;;;;;4957962;28;20490;-82
2022/04/06 00:20:46;;;;;;;24.63;11.30;;;8.60;99.90;;;;;;4974291;28;20041;-82
2022/04/06 00:23:12;;;;;;;32.22;12.90;;;8.60;99.90;;;;;;4958044;28;20559;-82
2022/04/06 00:25:38;;;;;;;25.35;11.75;;;8.60;99.90;;;;;;4974480;28;20034;-82
2022/04/06 00:28:04;;;;;;;31.17;12.23;;;8.60;99.90;;;;;;4974198;28;20049;-82
2022/04/06 00:30:29;;;;;;;31.88;12.07;;;8.60;99.90;;;;;;4974617;28;20049;-82
2022/04/06 00:32:55;;;;;;;27.92;11.60;;;8.60;99.90;;;;;;4990031;28;20585;-82
2022/04/06 00:35:31;;;;;;;27.58;12.02;;;8.60;99.90;;;;;;4973705;28;20094;-82
2022/04/06 00:38:02;;;;;;;26.52;10.63;;;8.60;99.90;;;;;;4973892;28;20124;-82
2022/04/06 00:40:29;;;;;;;28.75;10.70;;;8.60;99.90;;;;;;4974257;28;20038;-82
2022/04/06 00:42:55;;;;;;;24.67;9.95;;;8.60;99.90;;;;;;4973894;28;20046;-81
2022/04/06 00:45:23;;;;;;;24.08;10.13;;;8.60;99.90;;;;;;4957816;28;20031;-81
2022/04/06 00:47:49;;;;;;;23.17;9.75;;;8.70;99.90;;;;;;4974172;28;20047;-82
2022/04/06 00:50:17;;;;;;;29.25;9.50;;;8.70;99.90;;;;;;4973738;28;20070;-82
2022/04/06 00:52:43;;;;;;;27.48;8.77;;;8.70;99.90;;;;;;4973631;28;20043;-82
2022/04/06 00:55:11;;;;;;;24.75;8.43;;;8.70;99.90;;;;;;4973932;28;20051;-82
2022/04/06 00:57:37;;;;;;;17.17;7.82;;;8.70;99.90;;;;;;4973451;28;20046;-82
2022/04/06 01:00:05;;;;;;;17.08;7.28;;;8.80;99.90;;;;;;4973599;28;20074;-82
2022/04/06 01:02:32;;;;;;;22.77;7.78;;;8.80;99.90;;;;;;4973696;28;20046;-82
2022/04/06 01:04:57;;;;;;;21.30;6.97;;;8.80;99.90;;;;;;4973537;28;20046;-82
2022/04/06 01:07:24;;;;;;;20.75;6.97;;;8.80;99.90;;;;;;4957702;28;20107;-82
2022/04/06 01:09:49;;;;;;;17.73;6.60;;;8.80;99.90;;;;;;4973361;28;20039;-82
2022/04/06 01:12:15;;;;;;;16.92;6.57;;;8.80;99.90;;;;;;4975461;28;20378;-82
2022/04/06 01:14:42;;;;;;;15.90;6.43;;;8.80;99.90;;;;;;4989884;28;20485;-82
2022/04/06 01:17:09;;;;;;;21.35;6.57;;;8.80;99.90;;;;;;4973147;28;20509;-82
2022/04/06 01:19:37;;;;;;;17.30;6.20;;;8.80;99.90;;;;;;4972380;28;20035;-82
2022/04/06 01:22:14;;;;;;;16.05;5.63;;;8.80;99.90;;;;;;4985720;28;20484;-82
2022/04/06 01:24:40;;;;;;;15.60;5.82;;;8.80;99.90;;;;;;4969781;28;20117;-82
2022/04/06 01:27:07;;;;;;;14.15;5.00;;;8.90;99.90;;;;;;4971841;28;20466;-82
2022/04/06 01:29:33;;;;;;;15.68;5.95;;;8.90;99.90;;;;;;4986763;28;20121;-82
2022/04/06 01:32:19;;;;;;;18.33;6.13;;;8.90;99.90;;;;;;4971080;28;20401;-83
2022/04/06 01:34:45;;;;;;;16.67;5.75;;;8.90;99.90;;;;;;4969537;28;20146;-82
2022/04/06 01:37:13;;;;;;;20.80;5.43;;;9.00;99.90;;;;;;4939060;28;20043;-81
2022/04/06 01:39:41;;;;;;;16.23;6.07;;;8.90;99.90;;;;;;4986582;28;20045;-81
2022/04/06 01:42:09;;;;;;;18.50;5.95;;;8.90;99.90;;;;;;4972321;28;20450;-81
2022/04/06 01:44:35;;;;;;;18.40;5.60;;;8.90;99.90;;;;;;4971416;28;20043;-81
2022/04/06 01:47:06;;;;;;;18.40;6.13;;;8.90;99.90;;;;;;4974087;28;20672;-81
2022/04/06 01:52:16;;;;;;;14.88;5.60;;;8.90;99.90;;;;;;4957752;28;20047;-83
2022/04/06 01:55:08;;;;;;;17.50;5.25;;;8.90;99.90;;;;;;4971360;28;20097;-83
2022/04/06 01:57:34;;;;;;;14.48;4.90;;;8.90;99.90;;;;;;4944321;28;20388;-83
2022/04/06 02:00:01;;;;;;;17.48;5.63;;;8.90;99.90;;;;;;4955605;28;20057;-83
2022/04/06 02:02:31;;;;;;;10.32;4.32;;;8.90;99.90;;;;;;4979048;28;20098;-83
2022/04/06 02:04:58;;;;;;;13.02;4.30;;;8.90;99.90;;;;;;4938020;28;20497;-82
2022/04/06 02:07:25;;;;;;;16.23;4.65;;;8.90;99.90;;;;;;4968994;28;20429;-82
2022/04/06 02:09:51;;;;;;;13.57;4.07;;;8.80;99.90;;;;;;4954994;28;20118;-81
2022/04/06 02:12:17;;;;;;;13.68;4.05;;;8.90;99.90;;;;;;4974967;28;20035;-81
2022/04/06 02:14:42;;;;;;;11.35;4.03;;;8.90;99.90;;;;;;4956926;28;20592;-81
2022/04/06 02:17:09;;;;;;;12.85;4.30;;;8.80;99.90;;;;;;4972396;28;20054;-81
2022/04/06 02:19:36;;;;;;;10.40;3.63;;;8.90;99.90;;;;;;4957592;28;20433;-81
2022/04/06 02:22:04;;;;;;;12.30;3.35;;;8.90;99.90;;;;;;4990741;28;20553;-81
2022/04/06 02:24:30;;;;;;;13.07;3.83;;;8.90;99.90;;;;;;4972459;28;20051;-81
2022/04/06 02:26:56;;;;;;;8.65;3.28;;;8.90;99.90;;;;;;4975016;28;20043;-78
2022/04/06 02:29:21;;;;;;;10.90;3.30;;;8.90;99.90;;;;;;4983613;28;20039;-78
2022/04/06 02:31:47;;;;;;;9.88;3.42;;;8.90;99.90;;;;;;4973366;28;20090;-78
2022/04/06 02:34:13;;;;;;;8.70;2.78;;;8.90;99.90;;;;;;4972913;28;20062;-79
2022/04/06 02:36:39;;;;;;;11.13;2.80;;;8.90;99.90;;;;;;4958094;28;20101;-78
2022/04/06 02:39:05;;;;;;;12.57;3.08;;;8.90;99.90;;;;;;4973292;28;20432;-78
2022/04/06 02:41:31;;;;;;;8.85;3.40;;;8.90;99.90;;;;;;4983025;28;20104;-83
2022/04/06 02:43:57;;;;;;;11.48;3.08;;;8.90;99.90;;;;;;4973925;28;20039;-82
2022/04/06 02:46:22;;;;;;;11.18;3.28;;;8.90;99.90;;;;;;4989591;28;20476;-82
2022/04/06 02:48:48;;;;;;;10.13;2.85;;;8.90;99.90;;;;;;4973310;28;20039;-82
2022/04/06 02:51:14;;;;;;;10.35;2.90;;;9.00;99.90;;;;;;4974136;28;20133;-82
2022/04/06 02:53:40;;;;;;;7.55;3.03;;;8.90;99.90;;;;;;4942718;28;20039;-82
2022/04/06 02:56:06;;;;;;;7.95;3.17;;;9.00;99.90;;;;;;4957160;28;20445;-83
2022/04/06 02:58:31;;;;;;;11.57;3.20;;;8.90;99.90;;;;;;4973993;28;20117;-81
2022/04/06 03:00:58;;;;;;;8.57;3.20;;;8.90;99.90;;;;;;4974284;28;20397;-81
2022/04/06 03:03:24;;;;;;;12.80;3.15;;;8.90;99.90;;;;;;4989616;28;20485;-81
2022/04/06 03:05:50;;;;;;;14.07;3.47;;;8.90;99.90;;;;;;4967784;28;20130;-81
2022/04/06 03:08:16;;;;;;;12.48;3.88;;;8.80;99.90;;;;;;4985981;28;20138;-81
2022/04/06 03:10:42;;;;;;;13.00;3.67;;;8.80;99.90;;;;;;4956735;28;20385;-81
2022/04/06 03:13:07;;;;;;;11.18;3.53;;;8.80;99.90;;;;;;4974454;28;20042;-81
2022/04/06 03:15:33;;;;;;;11.95;4.15;;;8.80;99.90;;;;;;4973491;28;20073;-81
2022/04/06 03:17:59;;;;;;;13.75;3.65;;;8.70;99.90;;;;;;4973711;28;20042;-81
2022/04/06 03:20:25;;;;;;;14.93;4.40;;;8.80;99.90;;;;;;4973233;28;20051;-81
2022/04/06 03:22:51;;;;;;;13.07;4.60;;;9.10;99.90;;;;;;4988094;28;20072;-81
2022/04/06 03:25:17;;;;;;;13.25;4.32;;;8.80;99.90;;;;;;4973567;28;20054;-81
2022/04/06 03:27:42;;;;;;;11.18;4.15;;;8.80;99.90;;;;;;4988384;28;20045;-81
2022/04/06 03:30:11;;;;;;;15.27;4.53;;;8.80;99.90;;;;;;4973002;28;20039;-81
2022/04/06 03:32:37;;;;;;;13.30;4.90;;;8.80;99.90;;;;;;4969658;28;20125;-79
2022/04/06 03:35:04;;;;;;;13.10;5.28;;;8.80;99.90;;;;;;4959277;28;20059;-79
2022/04/06 03:37:29;;;;;;;11.98;4.70;;;8.80;99.90;;;;;;4990660;28;20054;-79
2022/04/06 03:39:55;;;;;;;12.68;5.40;;;8.80;99.90;;;;;;4987330;28;20397;-79
2022/04/06 03:42:21;;;;;;;12.05;4.55;;;8.80;99.90;;;;;;4974470;28;20047;-79
2022/04/06 03:44:47;;;;;;;13.70;5.38;;;9.10;99.90;;;;;;4974855;28;20047;-80
2022/04/06 03:47:12;;;;;;;14.25;5.57;;;8.80;99.90;;;;;;4969057;23;20027;-80
2022/04/06 03:49:38;;;;;;;15.70;5.80;;;8.70;99.90;;;;;;4997641;28;20049;-81
2022/04/06 03:52:04;;;;;;;13.60;4.95;;;8.70;99.90;;;;;;4996275;28;20038;-81
2022/04/06 03:54:30;;;;;;;14.65;5.32;;;8.60;99.90;;;;;;4981373;28;20185;-81
2022/04/06 03:56:56;;;;;;;18.05;6.55;;;8.60;99.90;;;;;;4997463;28;20124;-81
2022/04/06 03:59:21;;;;;;;14.88;5.60;;;8.60;99.90;;;;;;4997101;28;20049;-81
2022/04/06 04:01:47;;;;;;;18.27;5.57;;;8.60;99.90;;;;;;4997127;28;20050;-81
2022/04/06 04:04:13;;;;;;;15.20;5.78;;;8.60;99.90;;;;;;4980953;28;20041;-81
2022/04/06 04:06:38;;;;;;;15.30;6.18;;;8.60;99.90;;;;;;4997437;28;20167;-83
2022/04/06 04:09:04;;;;;;;16.48;6.82;;;8.60;99.90;;;;;;4981349;28;20030;-82
2022/04/06 04:11:30;;;;;;;19.67;6.20;;;8.60;99.90;;;;;;4980448;28;20049;-83
2022/04/06 04:13:57;;;;;;;16.88;7.13;;;8.60;99.90;;;;;;4994684;28;20057;-83
2022/04/06 04:16:23;;;;;;;23.77;6.93;;;8.50;99.90;;;;;;4979508;28;20041;-82
2022/04/06 04:18:49;;;;;;;14.75;6.70;;;8.50;99.90;;;;;;4995194;28;20057;-82
2022/04/06 04:21:33;;;;;;;13.65;6.28;;;8.50;99.90;;;;;;4974711;28;20116;-82
2022/04/06 04:24:03;;;;;;;17.40;6.60;;;8.50;99.90;;;;;;4995019;28;20073;-86
2022/04/06 04:26:30;;;;;;;17.45;6.50;;;8.50;99.90;;;;;;4989277;28;20115;-86
2022/04/06 04:28:56;;;;;;;16.88;6.38;;;8.50;99.90;;;;;;4997993;28;20042;-86
2022/04/06 04:31:22;;;;;;;18.85;5.90;;;8.50;99.90;;;;;;4978756;28;20181;-86
2022/04/06 04:33:48;;;;;;;13.60;6.18;;;8.50;99.90;;;;;;4986743;28;20124;-86
2022/04/06 04:36:13;;;;;;;19.92;5.65;;;8.40;99.90;;;;;;4962685;28;20089;-87
2022/04/06 04:38:39;;;;;;;17.08;6.45;;;8.30;99.90;;;;;;4992869;28;20125;-81
2022/04/06 04:41:08;;;;;;;15.82;5.72;;;8.30;99.90;;;;;;4992523;28;20042;-81
2022/04/06 04:43:37;;;;;;;23.77;7.15;;;8.30;99.90;;;;;;4996397;28;20050;-81
2022/04/06 04:46:04;;;;;;;19.77;6.80;;;8.30;99.90;;;;;;4978828;28;20045;-81
2022/04/06 04:48:30;;;;;;;27.63;7.43;;;8.30;99.90;;;;;;5004851;28;20049;-81
2022/04/06 04:50:56;;;;;;;17.10;5.93;;;8.30;99.90;;;;;;5007172;28;20121;-81
2022/04/06 04:53:22;;;;;;;17.77;5.43;;;8.30;99.90;;;;;;5009838;28;20195;-81
2022/04/06 04:55:48;;;;;;;21.52;6.80;;;8.20;99.90;;;;;;5029137;28;20128;-81
2022/04/06 04:58:13;;;;;;;21.77;6.32;;;8.20;99.90;;;;;;5029100;28;20046;-81
2022/04/06 05:00:39;;;;;;;15.63;5.68;;;8.20;99.90;;;;;;4995847;28;20369;-81
2022/04/06 05:03:05;;;;;;;19.92;5.18;;;8.20;99.90;;;;;;5009196;28;20377;-81
2022/04/06 05:05:31;;;;;;;21.52;6.63;;;8.20;99.90;;;;;;4989525;28;20070;-81
2022/04/06 05:07:59;;;;;;;19.38;5.95;;;8.30;99.90;;;;;;5009489;28;20100;-81
2022/04/06 05:10:25;;;;;;;19.25;6.20;;;8.10;99.90;;;;;;4996115;28;20096;-81
2022/04/06 05:12:51;;;;;;;18.73;6.18;;;8.10;99.90;;;;;;5012358;28;20459;-81
2022/04/06 05:15:17;;;;;;;15.80;5.38;;;8.00;99.90;;;;;;4996246;28;20046;-81
2022/04/06 05:17:43;;;;;;;17.45;5.70;;;8.00;99.90;;;;;;5012052;28;20060;-81
2022/04/06 05:20:10;;;;;;;18.95;5.57;;;8.10;99.90;;;;;;5012218;28;20046;-81
2022/04/06 05:22:36;;;;;;;16.27;4.85;;;8.00;99.90;;;;;;4979788;28;20494;-81
2022/04/06 05:25:04;;;;;;;21.08;6.00;;;8.00;99.90;;;;;;5011925;28;20130;-81
2022/04/06 05:27:46;;;;;;;19.50;6.00;;;8.00;99.90;;;;;;5006762;28;20049;-81
2022/04/06 05:30:14;;;;;;;14.48;5.55;;;7.90;99.90;;;;;;5011434;28;20077;-82
2022/04/06 05:32:40;;;;;;;29.35;6.55;;;7.90;99.90;;;;;;5011806;28;20100;-82
2022/04/06 05:35:08;;;;;;;25.83;6.38;;;8.00;99.90;;;;;;5011472;28;20112;-83
2022/04/06 05:37:34;;;;;;;22.60;5.75;;;7.90;99.90;;;;;;5011355;28;20042;-82
2022/04/06 05:40:00;;;;;;;23.23;5.95;;;7.90;99.90;;;;;;4993219;28;20042;-83
2022/04/06 05:42:26;;;;;;;21.33;6.53;;;7.80;99.90;;;;;;4995216;28;20072;-82
2022/04/06 05:44:52;;;;;;;20.10;6.50;;;7.90;99.90;;;;;;5011454;28;20046;-81
2022/04/06 05:47:19;;;;;;;20.77;6.38;;;7.80;99.90;;;;;;5014957;28;20037;-81
2022/04/06 05:49:44;;;;;;;23.65;6.80;;;7.80;99.90;;;;;;5015318;28;20468;-81
2022/04/06 05:52:10;;;;;;;22.25;7.20;;;7.80;99.90;;;;;;5008533;28;20074;-81
2022/04/06 05:54:36;;;;;;;16.45;6.60;;;7.80;99.90;;;;;;5015670;28;20030;-81
2022/04/06 05:57:03;;;;;;;20.85;6.03;;;7.80;99.90;;;;;;5015191;28;20096;-81
2022/04/06 05:59:29;;;;;;;26.48;6.38;;;7.80;99.90;;;;;;5012186;28;20069;-81
2022/04/06 06:01:55;;;;;;;23.13;6.65;;;8.20;99.90;;;;;;5014875;28;20131;-85
2022/04/06 06:04:20;;;;;;;25.42;6.82;;;7.80;99.90;;;;;;5014112;28;20034;-86
2022/04/06 06:06:48;;;;;;;15.02;5.25;;;7.80;99.90;;;;;;5004720;28;20034;-86
2022/04/06 06:09:14;;;;;;;19.27;5.57;;;7.80;99.90;;;;;;4992014;28;20400;-86
2022/04/06 06:11:41;;;;;;;22.67;6.75;;;7.90;99.90;;;;;;4997907;28;20045;-85
2022/04/06 06:14:07;;;;;;;23.02;6.05;;;7.90;99.90;;;;;;5014741;28;20052;-86
2022/04/06 06:16:34;;;;;;;19.63;6.15;;;7.80;99.90;;;;;;5014989;28;20046;-86
2022/04/06 06:18:59;;;;;;;18.98;5.43;;;7.80;99.90;;;;;;5013220;28;20081;-82
2022/04/06 06:21:27;;;;;;;16.92;4.82;;;7.90;99.90;;;;;;5013705;28;20456;-81
2022/04/06 06:23:56;;;;;;;24.95;5.05;;;7.90;99.90;;;;;;5030251;28;20046;-81
2022/04/06 06:26:21;;;;;;;14.57;4.72;;;8.40;99.90;;;;;;5029717;28;20045;-81
2022/04/06 06:28:47;;;;;;;20.77;5.38;;;7.90;99.90;;;;;;5012753;28;20038;-81
2022/04/06 06:31:13;;;;;;;19.75;4.30;;;7.80;99.90;;;;;;5011925;28;20037;-81
2022/04/06 06:33:38;;;;;;;16.05;4.57;;;7.90;99.90;;;;;;4996150;28;20509;-82
2022/04/06 06:36:04;;;;;;;19.23;4.53;;;7.80;99.90;;;;;;5012827;28;20046;-80
2022/04/06 06:38:30;;;;;;;16.50;4.70;;;7.90;99.90;;;;;;4995859;28;20100;-80
2022/04/06 06:40:55;;;;;;;25.63;5.38;;;7.90;99.90;;;;;;5014371;28;20045;-80
2022/04/06 06:43:21;;;;;;;30.40;5.25;;;7.80;99.90;;;;;;5014235;28;20045;-80
2022/04/06 06:45:47;;;;;;;16.10;4.70;;;7.80;99.90;;;;;;5014464;28;20427;-80
2022/04/06 06:48:13;;;;;;;16.08;4.82;;;7.90;99.90;;;;;;5013705;28;20381;-80
2022/04/06 06:50:38;;;;;;;12.38;4.20;;;7.80;99.90;;;;;;4998380;28;20037;-80
2022/04/06 06:53:04;;;;;;;15.43;4.55;;;7.80;99.90;;;;;;4996992;28;20050;-86
2022/04/06 06:55:30;;;;;;;20.20;4.95;;;7.80;99.90;;;;;;4998800;28;20091;-86
2022/04/06 06:57:55;;;;;;;17.08;5.55;;;7.80;99.90;;;;;;5013920;28;20046;-86
2022/04/06 07:00:21;;;;;;;16.33;4.28;;;7.80;99.90;;;;;;5013909;28;20049;-87
2022/04/06 07:02:47;;;;;;;16.77;4.05;;;7.80;99.90;;;;;;4998108;28;20073;-87
2022/04/06 07:05:13;;;;;;;18.83;4.80;;;7.80;99.90;;;;;;5014538;28;20045;-87
2022/04/06 07:07:53;;;;;;;14.65;3.80;;;7.80;99.90;;;;;;5014333;28;20488;-86
2022/04/06 07:10:22;;;;;;;14.75;3.60;;;7.80;99.90;;;;;;5013999;28;20046;-82
2022/04/06 07:12:48;;;;;;;20.67;5.30;;;7.80;99.90;;;;;;4997836;28;20045;-81
2022/04/06 07:15:14;;;;;;;21.90;4.38;;;7.80;99.90;;;;;;5014264;28;20369;-81
2022/04/06 07:17:40;;;;;;;21.65;4.50;;;7.80;99.90;;;;;;5013689;28;20049;-81
2022/04/06 07:20:07;;;;;;;20.45;3.95;;;7.90;99.90;;;;;;5011568;28;20046;-81
2022/04/06 07:22:33;;;;;;;17.98;4.45;;;7.90;99.90;;;;;;4997078;28;20034;-82
2022/04/06 07:24:58;;;;;;;19.00;4.32;;;7.90;99.90;;;;;;5013876;28;20042;-82
2022/04/06 07:27:24;;;;;;;18.52;4.72;;;7.90;99.90;;;;;;4997379;28;20098;-81
2022/04/06 07:29:51;;;;;;;18.65;4.05;;;7.90;99.90;;;;;;5013391;28;20096;-82
2022/04/06 07:32:17;;;;;;;18.70;4.30;;;8.00;99.90;;;;;;5022783;28;20042;-82
2022/04/06 07:34:43;;;;;;;16.95;3.75;;;8.00;99.90;;;;;;5007554;28;20192;-81
2022/04/06 07:37:09;;;;;;;17.88;4.10;;;7.90;99.90;;;;;;4993368;28;20029;-81
2022/04/06 07:39:35;;;;;;;17.52;4.35;;;8.20;99.90;;;;;;4993801;28;20048;-81
2022/04/06 07:42:01;;;;;;;21.40;4.15;;;8.00;99.90;;;;;;5008291;28;20037;-83
2022/04/06 07:44:27;;;;;;;22.00;4.38;;;8.00;99.90;;;;;;5007615;28;20038;-83
2022/04/06 07:46:53;;;;;;;14.70;4.07;;;8.00;99.90;;;;;;5010555;28;20096;-83
2022/04/06 07:49:19;;;;;;;18.20;4.10;;;8.00;99.90;;;;;;5009633;28;20053;-83
2022/04/06 07:51:46;;;;;;;23.25;4.47;;;8.10;99.90;;;;;;5029428;28;20081;-83
2022/04/06 07:54:12;;;;;;;16.75;4.07;;;8.00;99.90;;;;;;4997257;28;20104;-83
2022/04/06 07:56:39;;;;;;;18.23;4.63;;;8.00;99.90;;;;;;5028315;28;20038;-82
2022/04/06 07:59:05;;;;;;;14.65;4.30;;;8.00;99.90;;;;;;5027551;28;20049;-82
2022/04/06 08:01:31;;;;;;;16.38;4.53;;;8.00;99.90;;;;;;4994859;28;20133;-83
2022/04/06 08:03:57;;;;;;;14.32;4.30;;;8.00;99.90;;;;;;5012001;28;20175;-83
2022/04/06 08:06:24;;;;;;;14.15;4.10;;;8.00;99.90;;;;;;5011475;28;20045;-82
2022/04/06 08:08:51;;;;;;;15.23;4.28;;;8.40;99.90;;;;;;5011168;28;20095;-83
2022/04/06 08:11:20;;;;;;;23.20;4.53;;;8.00;99.90;;;;;;4991165;28;20041;-83
2022/04/06 08:13:47;;;;;;;14.35;3.92;;;8.10;99.90;;;;;;5001239;28;20026;-83
2022/04/06 08:16:13;;;;;;;17.00;4.35;;;8.10;99.90;;;;;;5004928;28;20040;-81
2022/04/06 08:18:39;;;;;;;17.95;4.68;;;8.10;99.90;;;;;;5011533;28;20483;-81
2022/04/06 08:21:09;;;;;;;13.32;3.75;;;8.10;99.90;;;;;;5007580;28;20106;-81
2022/04/06 08:23:35;;;;;;;17.83;4.00;;;8.10;99.90;;;;;;4991706;28;20491;-81
2022/04/06 08:26:01;;;;;;;14.65;3.83;;;8.10;99.90;;;;;;4991102;28;20176;-81
2022/04/06 08:28:26;;;;;;;15.40;3.63;;;8.20;99.90;;;;;;5010529;28;20128;-81
2022/04/06 08:30:52;;;;;;;17.75;3.92;;;8.20;99.90;;;;;;4985281;28;20041;-81
2022/04/06 08:33:18;;;;;;;18.42;3.42;;;8.20;99.90;;;;;;5007215;28;20163;-83
2022/04/06 08:35:43;;;;;;;16.60;3.92;;;8.30;99.90;;;;;;5009343;28;20049;-83
2022/04/06 08:38:15;;;;;;;15.50;3.80;;;8.30;99.90;;;;;;5004562;28;20046;-83
2022/04/06 08:40:42;;;;;;;13.52;3.08;;;8.40;99.90;;;;;;5007792;28;20104;-83
2022/04/06 08:43:09;;;;;;;17.88;3.78;;;8.40;99.90;;;;;;5006632;28;20551;-82
2022/04/06 08:45:39;;;;;;;11.13;3.08;;;8.40;99.90;;;;;;4984896;28;20042;-83
2022/04/06 08:48:09;;;;;;;20.10;3.53;;;8.50;99.90;;;;;;4993365;28;20041;-82
2022/04/06 08:50:37;;;;;;;12.48;3.53;;;8.60;99.90;;;;;;4993814;28;20044;-81
2022/04/06 08:53:05;;;;;;;15.43;3.33;;;8.60;99.90;;;;;;4992921;28;20050;-81
2022/04/06 08:55:32;;;;;;;16.92;3.65;;;8.80;99.90;;;;;;4980340;28;20042;-81
2022/04/06 08:57:59;;;;;;;17.45;4.60;;;8.90;99.90;;;;;;4975566;28;20045;-81
2022/04/06 09:00:25;;;;;;;13.45;3.70;;;9.00;99.90;;;;;;4975035;28;20038;-81
2022/04/06 09:02:52;;;;;;;16.17;3.70;;;9.20;99.90;;;;;;4993377;28;20042;-81
2022/04/06 09:05:23;;;;;;;12.68;3.22;;;9.40;99.90;;;;;;4994559;28;20030;-81
2022/04/06 09:07:51;;;;;;;14.45;4.00;;;9.70;99.90;;;;;;4978107;28;20077;-81
2022/04/06 09:10:33;;;;;;;14.25;3.67;;;9.70;99.90;;;;;;4968889;28;20117;-81
2022/04/06 09:13:20;;;;;;;16.85;4.57;;;9.70;99.90;;;;;;4994330;28;20041;-81
2022/04/06 09:15:47;;;;;;;13.10;3.35;;;9.80;99.90;;;;;;4994697;28;20041;-81
2022/04/06 09:18:14;;;;;;;13.20;3.50;;;9.90;99.90;;;;;;4975160;28;20057;-81
2022/04/06 09:20:40;;;;;;;16.05;3.75;;;10.00;99.90;;;;;;4994391;28;20038;-81
2022/04/06 09:23:07;;;;;;;15.73;4.00;;;10.00;99.90;;;;;;5008011;28;20057;-80
2022/04/06 09:25:37;;;;;;;18.85;3.80;;;10.10;99.90;;;;;;4994608;28;20519;-80
2022/04/06 09:28:12;;;;;;;18.75;4.22;;;10.30;99.90;;;;;;4992920;28;20132;-80
2022/04/06 09:30:45;;;;;;;14.00;3.50;;;10.40;99.90;;;;;;4976081;28;20400;-80
2022/04/06 09:33:15;;;;;;;15.90;3.55;;;10.30;99.90;;;;;;4986392;28;20034;-80
2022/04/06 09:35:41;;;;;;;13.50;3.50;;;10.20;99.90;;;;;;4994285;28;20048;-80
2022/04/06 09:38:14;;;;;;;9.65;2.55;;;10.10;99.90;;;;;;5010348;28;20038;-80
2022/04/06 09:40:41;;;;;;;14.00;3.40;;;10.10;99.90;;;;;;4994561;28;20040;-80
2022/04/06 09:43:08;;;;;;;14.90;3.55;;;10.00;99.90;;;;;;4994248;28;20042;-80
2022/04/06 09:48:18;;;;;;;14.70;4.05;;;10.00;99.90;;;;;;4994445;28;20575;-80
2022/04/06 09:50:54;;;;;;;17.38;3.95;;;10.40;99.90;;;;;;5010032;28;20046;-80
2022/04/06 09:53:27;;;;;;;15.50;4.18;;;9.90;99.90;;;;;;5004738;28;20044;-80
2022/04/06 09:55:54;;;;;;;15.55;4.00;;;9.90;99.90;;;;;;5011418;28;20060;-83
2022/04/06 09:58:22;;;;;;;13.63;4.00;;;9.90;99.90;;;;;;4994574;28;20046;-83
2022/04/06 10:00:48;;;;;;;17.15;4.38;;;10.10;99.90;;;;;;4992811;28;20045;-83
2022/04/06 10:03:15;;;;;;;14.43;4.15;;;9.70;99.90;;;;;;4994124;28;20041;-83
2022/04/06 10:05:44;;;;;;;17.77;3.97;;;10.00;99.90;;;;;;4994909;28;20137;-83
2022/04/06 10:08:11;;;;;;;13.48;4.00;;;9.60;99.90;;;;;;5011050;28;20076;-83
2022/04/06 10:10:40;;;;;;;18.38;4.53;;;9.70;99.90;;;;;;5011534;28;20431;-83
2022/04/06 10:13:09;;;;;;;16.42;4.40;;;9.70;99.90;;;;;;5011698;28;20041;-82
2022/04/06 10:15:37;;;;;;;15.18;4.60;;;9.70;99.90;;;;;;4995697;28;20046;-81
2022/04/06 10:18:06;;;;;;;14.85;4.18;;;9.70;99.90;;;;;;5011670;28;20057;-81
2022/04/06 10:20:37;;;;;;;17.10;4.00;;;9.60;99.90;;;;;;4994250;28;20566;-81
2022/04/06 10:23:24;;;;;;;18.02;4.50;;;9.60;99.90;;;;;;5011522;28;20492;-81
2022/04/06 10:26:25;;;;;;;17.08;4.38;;;9.60;99.90;;;;;;5004589;28;20532;-81
2022/04/06 10:28:51;;;;;;;22.83;4.38;;;9.60;99.90;;;;;;5009824;28;20067;-80
2022/04/06 10:31:24;;;;;;;15.38;4.43;;;9.70;99.90;;;;;;5011217;28;20104;-80
2022/04/06 10:33:51;;;;;;;22.00;5.40;;;9.60;99.90;;;;;;4999338;28;20056;-80
2022/04/06 10:36:19;;;;;;;18.08;4.88;;;9.60;99.90;;;;;;5010750;28;20109;-80
2022/04/06 10:39:08;;;;;;;20.52;4.78;;;9.50;99.90;;;;;;5012710;28;20118;-80
2022/04/06 10:41:39;;;;;;;24.40;5.43;;;9.70;99.90;;;;;;5028824;28;20049;-80
2022/04/06 10:44:05;;;;;;;19.80;4.70;;;9.50;99.90;;;;;;4996962;28;20065;-80
2022/04/06 10:46:34;;;;;;;25.05;5.13;;;9.60;99.90;;;;;;5013583;28;20107;-81
2022/04/06 10:49:06;;;;;;;23.95;5.07;;;9.70;99.90;;;;;;5014410;28;20445;-81
2022/04/06 10:51:39;;;;;;;17.60;4.82;;;9.70;99.90;;;;;;4998217;28;20129;-81
2022/04/06 10:54:14;;;;;;;18.92;4.43;;;9.80;99.90;;;;;;5031370;28;20121;-81
2022/04/06 10:56:49;;;;;;;25.60;4.57;;;9.80;99.90;;;;;;5014299;28;20135;-81
2022/04/06 10:59:19;;;;;;;17.17;4.40;;;9.90;99.90;;;;;;5028176;28;20432;-81
2022/04/06 11:01:48;;;;;;;18.48;5.22;;;10.00;99.90;;;;;;5014580;28;20041;-87
2022/04/06 11:04:23;;;;;;;23.25;5.10;;;10.30;99.90;;;;;;4999194;28;20052;-87
2022/04/06 11:06:59;;;;;;;19.30;5.00;;;10.40;99.90;;;;;;5006583;28;20045;-87
2022/04/06 11:12:28;;;;;;;22.85;5.47;;;10.90;99.90;;;;;;5029477;28;20052;-87
2022/04/06 11:15:00;;;;;;;19.75;4.25;;;11.20;99.90;;;;;;5009360;28;20033;-87
2022/04/06 11:17:32;;;;;;;18.15;4.20;;;11.60;99.90;;;;;;5006546;28;20044;-87
2022/04/06 11:20:07;;;;;;;18.70;5.13;;;11.90;99.90;;;;;;4987871;28;20404;-80
2022/04/06 11:22:34;;;;;;;17.17;3.90;;;12.10;99.90;;;;;;5009161;28;20095;-80
2022/04/06 11:25:00;;;;;;;14.77;3.30;;;12.60;99.90;;;;;;5010190;28;20480;-81
2022/04/06 11:27:32;;;;;;;14.98;3.95;;;13.00;99.90;;;;;;5011559;28;20527;-81
2022/04/06 11:30:03;;;;;;;13.10;3.80;;;13.10;99.90;;;;;;4996372;28;20083;-81
2022/04/06 11:32:29;;;;;;;13.43;3.40;;;13.20;99.90;;;;;;5014312;22;20339;-84
2022/04/06 11:35:06;;;;;;;12.60;3.83;;;13.40;99.90;;;;;;4992829;28;20070;-81
2022/04/06 11:37:40;;;;;;;11.82;3.55;;;13.60;99.90;;;;;;4992580;28;20041;-81
2022/04/06 11:40:07;;;;;;;14.07;3.65;;;13.80;99.90;;;;;;4993168;28;20041;-81
2022/04/06 11:42:33;;;;;;;15.75;3.67;;;14.10;99.90;;;;;;4992211;28;20116;-81
2022/04/06 11:44:58;;;;;;;15.38;3.88;;;14.20;99.90;;;;;;4976009;28;20671;-80
2022/04/06 11:47:28;;;;;;;9.55;3.00;;;13.90;99.90;;;;;;4976808;28;20058;-81
2022/04/06 11:49:53;;;;;;;9.50;3.20;;;14.20;99.90;;;;;;4992269;28;20047;-80
2022/04/06 11:52:19;;;;;;;15.65;3.53;;;13.50;99.90;;;;;;4991490;28;20185;-87
2022/04/06 11:54:53;;;;;;;11.95;3.40;;;13.20;99.90;;;;;;4987848;28;20122;-87
2022/04/06 11:57:19;;;;;;;14.57;3.22;;;13.40;99.90;;;;;;4988350;28;20078;-88
2022/04/06 12:00:13;;;;;;;16.80;3.47;;;13.40;99.90;;;;;;4992997;28;20487;-87
2022/04/06 12:02:48;;;;;;;14.20;4.10;;;12.90;99.90;;;;;;4987912;28;20112;-87
2022/04/06 12:05:14;;;;;;;16.63;3.78;;;12.90;99.90;;;;;;4987914;28;20077;-87
2022/04/06 12:07:39;;;;;;;14.07;3.70;;;13.00;99.90;;;;;;4990590;28;20088;-87
2022/04/06 12:10:06;;;;;;;11.65;3.72;;;12.90;99.90;;;;;;4991521;28;20041;-80
2022/04/06 12:12:36;;;;;;;18.35;3.80;;;12.90;99.90;;;;;;4990320;28;20038;-80
2022/04/06 12:15:06;;;;;;;13.65;3.33;;;13.00;99.90;;;;;;4991236;28;20076;-80
2022/04/06 12:17:37;;;;;;;17.27;4.22;;;13.00;99.90;;;;;;4991983;28;20069;-80
2022/04/06 12:20:26;;;;;;;15.93;3.83;;;13.30;99.90;;;;;;4989459;28;20042;-80
2022/04/06 12:23:03;;;;;;;16.80;4.63;;;13.60;99.90;;;;;;4987104;28;20104;-80
2022/04/06 12:25:30;;;;;;;15.98;3.42;;;14.10;99.90;;;;;;4991018;28;20042;-82
2022/04/06 12:28:28;;;;;;;14.65;4.05;;;14.30;99.90;;;;;;4959872;28;20117;-82
2022/04/06 12:31:05;;;;;;;15.02;3.83;;;14.30;99.90;;;;;;4967627;28;20042;-83
2022/04/06 12:33:34;;;;;;;16.02;3.97;;;14.40;99.90;;;;;;4988633;28;20409;-82
2022/04/06 12:36:12;;;;;;;12.15;3.35;;;14.20;99.90;;;;;;4973305;28;20128;-83
2022/04/06 12:38:40;;;;;;;13.02;3.50;;;14.10;99.90;;;;;;4987025;28;20104;-83
2022/04/06 12:41:13;;;;;;;16.60;3.42;;;14.30;99.90;;;;;;4991470;28;20049;-83
2022/04/06 12:43:40;;;;;;;12.40;3.08;;;14.20;99.90;;;;;;4957349;28;20132;-82
2022/04/06 12:46:06;;;;;;;18.95;4.38;;;13.70;99.90;;;;;;4989210;28;20042;-82
2022/04/06 12:48:32;;;;;;;14.68;3.15;;;13.60;99.90;;;;;;4971854;28;20034;-82
2022/04/06 12:50:58;;;;;;;17.13;3.85;;;13.40;99.90;;;;;;4990047;28;20660;-81
2022/04/06 12:53:24;;;;;;;18.85;3.90;;;13.40;99.90;;;;;;5006181;28;20046;-82
2022/04/06 12:56:09;;;;;;;14.55;4.00;;;13.20;99.90;;;;;;4990101;28;20053;-81
2022/04/06 12:58:35;;;;;;;16.50;3.60;;;12.80;99.90;;;;;;4989943;28;20173;-80